Time;durP1;ratioP1;P1;durP2;ratioP2;P2;SDS_P1;SDS_P2;PMS_P1;PMS_P2;Temp;Humidity;BMP_temperature;BMP_pressure;BME280_temperature;BME280_humidity;BME280_pressure;Samples;Min_cycle;Max_cycle;Signal;HPM_P1;HPM_P2
2022/07/10 00:04:43;;;;;;;1.48;0.80;;;;;;;;;;12649951;28;20028;-81
2022/07/10 00:10:45;;;;;;;;;;;;;;;;;;12651191;28;20495;-76
2022/07/10 00:16:48;;;;;;;1.88;0.80;;;;;;;;;;12632557;28;20177;-77
2022/07/10 00:22:50;;;;;;;;;;;;;;;;;;12652065;28;20028;-76
2022/07/10 00:28:51;;;;;;;1.33;0.90;;;;;;;;;;12649383;28;19915;-82
2022/07/10 00:34:53;;;;;;;;;;;;;;;;;;12648053;28;20519;-83
2022/07/10 00:40:55;;;;;;;0.80;0.77;;;;;;;;;;12649352;28;20219;-82
2022/07/10 00:46:56;;;;;;;;;;;;;;;;;;12630764;28;20036;-77
2022/07/10 00:52:58;;;;;;;0.60;0.60;;;;;;;;;;12630701;28;19916;-76
2022/07/10 00:59:01;;;;;;;;;;;;;;;;;;12633768;28;20492;-77
2022/07/10 01:05:04;;;;;;;2.83;0.90;;;;;;;;;;12647253;28;19908;-82
2022/07/10 01:11:06;;;;;;;1.42;0.98;;;;;;;;;;12630411;28;20043;-76
2022/07/10 01:17:11;;;;;;;1.05;0.80;;;;;;;;;;12645936;28;20400;-76
2022/07/10 01:23:13;;;;;;;1.50;1.40;;;;;;;;;;12646569;28;20036;-82
2022/07/10 01:29:14;;;;;;;2.35;1.90;;;;;;;;;;12646087;28;20039;-83
2022/07/10 01:35:16;;;;;;;5.88;4.00;;;;;;;;;;12629841;28;20036;-82
2022/07/10 01:41:18;;;;;;;;;;;;;;;;;;12629799;28;20523;-82
2022/07/10 01:47:19;;;;;;;5.73;4.20;;;;;;;;;;12628287;28;20283;-82
2022/07/10 01:53:21;;;;;;;;;;;;;;;;;;12645701;28;20504;-82
2022/07/10 01:59:23;;;;;;;3.57;3.03;;;;;;;;;;12609711;28;19919;-82
2022/07/10 02:05:24;;;;;;;4.20;2.83;;;;;;;;;;12627562;28;20039;-77
2022/07/10 02:11:26;;;;;;;4.07;3.03;;;;;;;;;;12645864;28;20467;-76
2022/07/10 02:17:28;;;;;;;3.70;2.45;;;;;;;;;;12644408;28;20519;-77
2022/07/10 02:23:29;;;;;;;2.75;1.90;;;;;;;;;;12643941;28;20043;-77
2022/07/10 02:29:31;;;;;;;2.45;1.67;;;;;;;;;;12643343;28;20036;-77
2022/07/10 02:35:33;;;;;;;2.65;1.10;;;;;;;;;;12644808;28;20036;-81
2022/07/10 02:41:35;;;;;;;2.00;1.40;;;;;;;;;;12626922;28;20060;-76
2022/07/10 02:47:37;;;;;;;3.10;2.40;;;;;;;;;;12644653;28;20036;-77
2022/07/10 02:53:39;;;;;;;5.75;3.58;;;;;;;;;;12645099;28;20036;-76
2022/07/10 02:59:40;;;;;;;;;;;;;;;;;;12645661;28;20039;-76
2022/07/10 03:05:43;;;;;;;4.53;3.60;;;;;;;;;;12630436;28;19908;-76
2022/07/10 03:11:44;;;;;;;6.47;4.20;;;;;;;;;;12625983;28;20403;-76
2022/07/10 03:17:46;;;;;;;7.88;4.30;;;;;;;;;;12625048;28;20202;-82
2022/07/10 03:23:48;;;;;;;3.63;2.60;;;;;;;;;;12624963;28;20043;-76
2022/07/10 03:29:49;;;;;;;6.38;3.83;;;;;;;;;;12630115;28;20040;-82
2022/07/10 03:35:51;;;;;;;9.05;3.95;;;;;;;;;;12654377;28;20051;-81
2022/07/10 03:41:53;;;;;;;4.60;3.10;;;;;;;;;;12653427;28;20058;-77
2022/07/10 03:47:55;;;;;;;4.88;3.20;;;;;;;;;;12651647;28;20040;-82
2022/07/10 03:53:56;;;;;;;4.53;2.80;;;;;;;;;;12632926;28;20418;-82
2022/07/10 03:59:58;;;;;;;3.15;2.50;;;;;;;;;;12617801;28;20036;-82
2022/07/10 04:06:00;;;;;;;3.90;2.45;;;;;;;;;;12654689;28;20031;-82
2022/07/10 04:12:01;;;;;;;3.38;2.38;;;;;;;;;;12635593;28;20396;-81
2022/07/10 04:18:03;;;;;;;3.22;2.10;;;;;;;;;;12652652;28;20035;-81
2022/07/10 04:24:05;;;;;;;1.42;1.33;;;;;;;;;;12652082;28;20032;-76
2022/07/10 04:30:07;;;;;;;2.55;1.80;;;;;;;;;;12634259;28;20044;-84
2022/07/10 04:36:30;;;;;;;1.85;1.60;;;;;;;;;;12653230;28;20044;-76
2022/07/10 04:42:32;;;;;;;2.25;1.40;;;;;;;;;;12651664;28;20059;-82
2022/07/10 04:48:33;;;;;;;1.75;1.30;;;;;;;;;;12651601;28;20032;-82
2022/07/10 04:54:35;;;;;;;1.33;0.93;;;;;;;;;;12633448;28;20046;-82
2022/07/10 05:00:37;;;;;;;1.88;1.40;;;;;;;;;;12651819;28;20035;-76
2022/07/10 05:06:57;;;;;;;1.25;1.15;;;;;;;;;;12641829;28;20491;-82
2022/07/10 05:12:59;;;;;;;1.58;1.33;;;;;;;;;;12632962;28;20047;-82
2022/07/10 05:19:00;;;;;;;;;;;;;;;;;;12650767;28;20245;-82
2022/07/10 05:25:02;;;;;;;1.20;1.10;;;;;;;;;;12631286;28;19908;-77
2022/07/10 05:31:03;;;;;;;;;;;;;;;;;;12632125;28;20063;-77
2022/07/10 05:37:11;;;;;;;1.05;0.70;;;;;;;;;;12649554;28;19908;-82
2022/07/10 05:43:12;;;;;;;1.42;1.10;;;;;;;;;;12651658;28;20422;-77
2022/07/10 05:49:14;;;;;;;1.63;1.38;;;;;;;;;;12630105;28;20032;-82
2022/07/10 05:55:16;;;;;;;2.15;1.73;;;;;;;;;;12647572;28;20036;-82
2022/07/10 06:01:18;;;;;;;1.45;1.17;;;;;;;;;;12648829;28;20043;-78
2022/07/10 06:07:19;;;;;;;1.73;1.63;;;;;;;;;;12613927;28;20031;-80
2022/07/10 06:13:21;;;;;;;;;;;;;;;;;;12630769;28;20047;-81
2022/07/10 06:19:23;;;;;;;1.77;1.10;;;;;;;;;;12647711;28;19934;-77
2022/07/10 06:25:25;;;;;;;1.08;1.00;;;;;;;;;;12628658;28;20028;-82
2022/07/10 06:31:26;;;;;;;1.25;0.90;;;;;;;;;;12645431;28;20051;-77
2022/07/10 06:37:28;;;;;;;;;;;;;;;;;;12626014;28;20035;-78
2022/07/10 06:43:30;;;;;;;0.90;0.53;;;;;;;;;;12645983;28;20370;-78
2022/07/10 06:49:31;;;;;;;;;;;;;;;;;;12643852;28;20032;-81
2022/07/10 06:55:33;;;;;;;1.37;0.80;;;;;;;;;;12642536;28;19915;-82
2022/07/10 07:01:35;;;;;;;0.60;0.60;;;;;;;;;;12623880;28;20519;-76
2022/07/10 07:07:36;;;;;;;;;;;;;;;;;;12624341;28;20494;-77
2022/07/10 07:13:38;;;;;;;0.50;0.47;;;;;;;;;;12642979;28;19943;-81
2022/07/10 07:26:00;;;;;;;0.50;0.50;;;;;;;;;;12623719;28;20028;-82
2022/07/10 07:32:03;;;;;;;1.42;0.70;;;;;;;;;;12641521;28;20036;-82
2022/07/10 07:38:05;;;;;;;1.08;0.43;;;;;;;;;;12641627;28;20396;-76
2022/07/10 07:44:08;;;;;;;0.28;0.28;;;;;;;;;;12642357;28;20036;-82
2022/07/10 07:50:09;;;;;;;0.30;0.30;;;;;;;;;;12623620;28;20445;-82
2022/07/10 07:56:11;;;;;;;0.75;0.50;;;;;;;;;;12623510;28;20032;-76
2022/07/10 08:02:13;;;;;;;0.57;0.30;;;;;;;;;;12607802;28;20047;-77
2022/07/10 08:08:15;;;;;;;1.10;0.30;;;;;;;;;;12641470;28;20032;-78
2022/07/10 08:14:17;;;;;;;0.68;0.35;;;;;;;;;;12643116;28;20064;-77
2022/07/10 08:20:19;;;;;;;0.32;0.20;;;;;;;;;;12650869;28;20032;-77
2022/07/10 08:26:21;;;;;;;0.63;0.40;;;;;;;;;;12651005;28;20021;-82
2022/07/10 08:32:23;;;;;;;0.57;0.20;;;;;;;;;;12613918;28;20048;-81
2022/07/10 08:38:25;;;;;;;0.63;0.20;;;;;;;;;;12649228;28;20052;-77
2022/07/10 08:44:30;;;;;;;0.73;0.40;;;;;;;;;;12648730;28;20038;-76
2022/07/10 08:50:33;;;;;;;0.43;0.30;;;;;;;;;;12629776;28;20036;-83
2022/07/10 08:56:36;;;;;;;0.63;0.30;;;;;;;;;;12614162;28;20036;-77
2022/07/10 09:02:37;;;;;;;0.22;0.22;;;;;;;;;;12629373;28;20059;-77
2022/07/10 09:08:57;;;;;;;0.98;0.30;;;;;;;;;;12630036;28;20035;-76
2022/07/10 09:15:15;;;;;;;0.25;0.20;;;;;;;;;;12649499;28;20040;-82
2022/07/10 09:21:17;;;;;;;0.30;0.30;;;;;;;;;;12628758;28;20028;-77
2022/07/10 09:27:19;;;;;;;1.00;0.57;;;;;;;;;;12645243;28;20036;-76
2022/07/10 09:33:25;;;;;;;0.45;0.30;;;;;;;;;;12647972;28;20408;-77
2022/07/10 09:39:27;;;;;;;0.40;0.40;;;;;;;;;;12646787;28;20348;-76
2022/07/10 09:45:28;;;;;;;0.40;0.20;;;;;;;;;;12645709;28;20047;-77
2022/07/10 09:51:34;;;;;;;0.52;0.32;;;;;;;;;;12644973;28;20530;-77
2022/07/10 09:57:36;;;;;;;0.65;0.30;;;;;;;;;;12645312;28;20504;-81
2022/07/10 10:03:39;;;;;;;0.45;0.45;;;;;;;;;;12627068;28;20043;-77
2022/07/10 10:09:48;;;;;;;0.30;0.30;;;;;;;;;;12626569;28;20035;-77
2022/07/10 10:15:51;;;;;;;0.20;0.20;;;;;;;;;;12626466;28;20118;-81
2022/07/10 10:21:54;;;;;;;0.52;0.50;;;;;;;;;;12608950;28;20036;-81
2022/07/10 10:27:56;;;;;;;0.90;0.30;;;;;;;;;;12610059;28;20345;-76
2022/07/10 10:34:00;;;;;;;0.43;0.43;;;;;;;;;;12607751;28;20047;-76
2022/07/10 10:40:02;;;;;;;0.50;0.38;;;;;;;;;;12624867;28;20055;-82
2022/07/10 10:46:25;;;;;;;0.90;0.47;;;;;;;;;;12625096;28;20035;-82
2022/07/10 10:52:27;;;;;;;0.60;0.30;;;;;;;;;;12623777;28;20050;-81
2022/07/10 10:58:36;;;;;;;0.88;0.40;;;;;;;;;;12642809;28;20043;-82
2022/07/10 11:04:38;;;;;;;0.30;0.30;;;;;;;;;;12626098;28;20032;-81
2022/07/10 11:10:42;;;;;;;0.25;0.25;;;;;;;;;;12642485;28;20044;-81
2022/07/10 11:16:48;;;;;;;1.33;0.52;;;;;;;;;;12641471;28;20040;-81
2022/07/10 11:22:53;;;;;;;0.40;0.40;;;;;;;;;;12641466;28;20028;-77
2022/07/10 11:29:02;;;;;;;2.25;0.70;;;;;;;;;;12641148;28;20032;-81
2022/07/10 11:35:06;;;;;;;0.45;0.40;;;;;;;;;;12641522;28;20040;-77
2022/07/10 11:41:13;;;;;;;3.60;3.30;;;;;;;;;;12642495;28;20408;-82
2022/07/10 11:47:15;;;;;;;0.90;0.60;;;;;;;;;;12606470;28;20059;-77
2022/07/10 11:53:26;;;;;;;0.60;0.60;;;;;;;;;;12648603;28;20036;-81
2022/07/10 11:59:28;;;;;;;0.47;0.47;;;;;;;;;;12633470;28;20028;-76
2022/07/10 12:05:37;;;;;;;0.68;0.63;;;;;;;;;;12650990;28;20032;-81
2022/07/10 12:11:40;;;;;;;0.65;0.50;;;;;;;;;;12631417;28;20476;-82
2022/07/10 12:17:51;;;;;;;0.60;0.40;;;;;;;;;;12649331;28;20032;-82
2022/07/10 12:23:53;;;;;;;1.55;0.95;;;;;;;;;;12649178;28;20058;-82
2022/07/10 12:30:01;;;;;;;2.75;1.50;;;;;;;;;;12630793;28;20626;-80
2022/07/10 12:36:03;;;;;;;1.20;0.98;;;;;;;;;;12630154;28;20055;-83
2022/07/10 12:42:06;;;;;;;0.80;0.80;;;;;;;;;;12629838;28;20052;-82
2022/07/10 12:48:22;;;;;;;4.03;3.63;;;;;;;;;;12629320;28;20031;-81
2022/07/10 12:54:38;;;;;;;10.27;8.38;;;;;;;;;;12630457;28;20399;-81
2022/07/10 13:00:44;;;;;;;4.55;4.15;;;;;;;;;;12628007;28;20388;-81
2022/07/10 13:06:46;;;;;;;4.00;3.60;;;;;;;;;;12629374;28;20032;-82
2022/07/10 13:12:48;;;;;;;2.88;1.95;;;;;;;;;;12629510;28;20040;-82
2022/07/10 13:18:50;;;;;;;1.70;0.90;;;;;;;;;;12613325;28;20028;-76
2022/07/10 13:24:52;;;;;;;2.13;0.63;;;;;;;;;;12630375;28;20502;-75
2022/07/10 13:30:54;;;;;;;1.38;0.55;;;;;;;;;;12644901;28;20092;-82
2022/07/10 13:36:56;;;;;;;1.30;0.50;;;;;;;;;;12628298;28;20032;-77
2022/07/10 13:42:58;;;;;;;0.40;0.32;;;;;;;;;;12646761;28;20052;-76
2022/07/10 13:49:00;;;;;;;1.23;0.30;;;;;;;;;;12646093;28;20431;-80
2022/07/10 13:55:04;;;;;;;1.38;0.40;;;;;;;;;;12645052;28;20032;-81
2022/07/10 14:01:06;;;;;;;0.85;0.20;;;;;;;;;;12644411;28;20028;-78
2022/07/10 14:07:07;;;;;;;1.15;0.32;;;;;;;;;;12643986;28;20073;-77
2022/07/10 14:13:09;;;;;;;0.63;0.20;;;;;;;;;;12625064;28;20504;-82
2022/07/10 14:19:11;;;;;;;0.43;0.30;;;;;;;;;;12624962;28;20028;-77
2022/07/10 14:25:13;;;;;;;1.05;0.40;;;;;;;;;;12642735;28;20047;-77
2022/07/10 14:31:15;;;;;;;1.67;0.30;;;;;;;;;;12642564;28;20040;-82
2022/07/10 14:37:18;;;;;;;0.40;0.20;;;;;;;;;;12642846;28;20036;-82
2022/07/10 14:43:20;;;;;;;1.33;0.30;;;;;;;;;;12642474;28;20055;-82
2022/07/10 14:49:22;;;;;;;0.30;0.20;;;;;;;;;;12624461;28;20551;-81
2022/07/10 14:55:24;;;;;;;0.55;0.30;;;;;;;;;;12624388;28;20399;-82
2022/07/10 15:01:26;;;;;;;1.23;0.30;;;;;;;;;;12624368;28;20024;-81
2022/07/10 15:07:28;;;;;;;2.95;0.55;;;;;;;;;;12625017;28;20025;-82
2022/07/10 15:13:30;;;;;;;0.88;0.30;;;;;;;;;;12641579;28;20048;-82
2022/07/10 15:19:31;;;;;;;2.42;0.40;;;;;;;;;;12641853;28;20032;-82
2022/07/10 15:25:33;;;;;;;0.57;0.30;;;;;;;;;;12644905;28;20035;-82
2022/07/10 15:31:35;;;;;;;1.02;0.35;;;;;;;;;;12633525;28;20546;-82
2022/07/10 15:37:36;;;;;;;0.38;0.28;;;;;;;;;;12616968;28;20039;-82
2022/07/10 15:43:39;;;;;;;2.28;0.32;;;;;;;;;;12617953;28;20056;-82
2022/07/10 15:49:41;;;;;;;1.55;0.30;;;;;;;;;;12651307;28;20035;-77
2022/07/10 15:55:43;;;;;;;0.50;0.30;;;;;;;;;;12650985;28;20047;-77
2022/07/10 16:01:45;;;;;;;1.27;0.30;;;;;;;;;;12650380;28;20055;-77
2022/07/10 16:07:47;;;;;;;0.28;0.20;;;;;;;;;;12651027;28;20048;-77
2022/07/10 16:13:49;;;;;;;1.02;0.20;;;;;;;;;;12650158;28;20055;-77
2022/07/10 16:19:51;;;;;;;0.98;0.30;;;;;;;;;;12649980;28;20036;-76
2022/07/10 16:26:02;;;;;;;0.88;0.35;;;;;;;;;;12632042;28;20035;-77
2022/07/10 16:32:04;;;;;;;1.35;0.20;;;;;;;;;;12614943;28;20084;-77
2022/07/10 16:38:05;;;;;;;0.75;0.20;;;;;;;;;;12633472;28;20035;-77
2022/07/10 16:44:10;;;;;;;0.40;0.30;;;;;;;;;;12632206;28;20310;-76
2022/07/10 16:50:12;;;;;;;0.52;0.20;;;;;;;;;;12649074;28;20036;-77
2022/07/10 16:56:13;;;;;;;0.43;0.15;;;;;;;;;;12649155;28;20082;-81
2022/07/10 17:02:16;;;;;;;1.17;0.50;;;;;;;;;;12648528;28;20071;-76
2022/07/10 17:08:17;;;;;;;0.98;0.40;;;;;;;;;;12649244;28;20024;-76
2022/07/10 17:14:19;;;;;;;0.82;0.20;;;;;;;;;;12631046;28;20052;-81
2022/07/10 17:20:24;;;;;;;0.38;0.28;;;;;;;;;;12613570;28;20036;-77
2022/07/10 17:26:26;;;;;;;0.60;0.30;;;;;;;;;;12647489;28;20031;-76
2022/07/10 17:32:27;;;;;;;0.50;0.40;;;;;;;;;;12628801;28;20036;-77
2022/07/10 17:38:29;;;;;;;0.85;0.30;;;;;;;;;;12648043;28;20051;-81
2022/07/10 17:44:31;;;;;;;0.70;0.30;;;;;;;;;;12612164;28;20043;-82
2022/07/10 17:50:32;;;;;;;1.17;0.50;;;;;;;;;;12646646;28;20032;-82
2022/07/10 17:56:34;;;;;;;1.35;0.70;;;;;;;;;;12610734;28;20028;-82
2022/07/10 18:02:36;;;;;;;0.30;0.30;;;;;;;;;;12646632;28;20039;-80
2022/07/10 18:08:39;;;;;;;0.80;0.38;;;;;;;;;;12646692;28;20036;-81
2022/07/10 18:14:41;;;;;;;1.02;0.50;;;;;;;;;;12645085;28;20055;-81
2022/07/10 18:20:43;;;;;;;1.25;0.28;;;;;;;;;;12627920;28;20028;-76
2022/07/10 18:26:45;;;;;;;0.45;0.15;;;;;;;;;;12644858;28;20035;-77
2022/07/10 18:39:07;;;;;;;1.20;0.20;;;;;;;;;;12646017;28;20500;-81
2022/07/10 18:45:10;;;;;;;0.57;0.35;;;;;;;;;;12626917;28;20737;-76
2022/07/10 18:51:12;;;;;;;1.05;0.30;;;;;;;;;;12644199;28;20076;-82
2022/07/10 18:57:14;;;;;;;0.90;0.40;;;;;;;;;;12645859;28;20468;-82
2022/07/10 19:03:15;;;;;;;1.27;0.47;;;;;;;;;;12631286;28;20032;-77
2022/07/10 19:09:17;;;;;;;0.45;0.30;;;;;;;;;;12611236;28;20043;-77
2022/07/10 19:15:19;;;;;;;2.03;0.30;;;;;;;;;;12644576;28;20040;-76
2022/07/10 19:21:21;;;;;;;0.88;0.30;;;;;;;;;;12643909;28;20043;-77
2022/07/10 19:27:23;;;;;;;0.20;0.20;;;;;;;;;;12643425;28;20396;-76
2022/07/10 19:33:25;;;;;;;0.65;0.40;;;;;;;;;;12643899;28;20408;-77
2022/07/10 19:39:27;;;;;;;1.00;0.30;;;;;;;;;;12643871;28;20048;-81
2022/07/10 19:45:29;;;;;;;0.45;0.30;;;;;;;;;;12625979;28;20502;-77
2022/07/10 19:51:31;;;;;;;0.40;0.40;;;;;;;;;;12609856;28;20294;-77
2022/07/10 19:57:32;;;;;;;0.47;0.47;;;;;;;;;;12627167;28;20040;-76
2022/07/10 20:03:34;;;;;;;1.02;0.50;;;;;;;;;;12626077;28;20471;-76
2022/07/10 20:09:36;;;;;;;0.50;0.47;;;;;;;;;;12630987;28;20114;-77
2022/07/10 20:15:38;;;;;;;0.47;0.45;;;;;;;;;;12654607;28;20517;-82
2022/07/10 20:21:40;;;;;;;0.80;0.40;;;;;;;;;;12634247;28;20047;-82
2022/07/10 20:27:43;;;;;;;1.25;0.43;;;;;;;;;;12617127;28;20036;-81
2022/07/10 20:33:44;;;;;;;0.93;0.50;;;;;;;;;;12633878;28;20043;-76
2022/07/10 20:39:46;;;;;;;1.05;0.45;;;;;;;;;;12615435;28;20503;-82
2022/07/10 20:45:48;;;;;;;0.60;0.43;;;;;;;;;;12617613;28;20243;-76
2022/07/10 20:51:50;;;;;;;1.50;0.60;;;;;;;;;;12650073;28;20036;-75
2022/07/10 20:57:51;;;;;;;0.73;0.60;;;;;;;;;;12630739;28;20045;-81
2022/07/10 21:03:53;;;;;;;1.85;0.45;;;;;;;;;;12631962;28;20036;-82
2022/07/10 21:09:55;;;;;;;0.93;0.40;;;;;;;;;;12651186;28;20036;-76
2022/07/10 21:15:57;;;;;;;1.15;0.40;;;;;;;;;;12649544;28;20052;-75
2022/07/10 21:21:58;;;;;;;0.93;0.75;;;;;;;;;;12632477;28;20498;-82
2022/07/10 21:28:00;;;;;;;0.30;0.30;;;;;;;;;;12631555;28;20407;-82
2022/07/10 21:34:02;;;;;;;0.90;0.43;;;;;;;;;;12650108;28;20488;-76
2022/07/10 21:40:04;;;;;;;0.85;0.45;;;;;;;;;;12652202;28;20075;-76
2022/07/10 21:46:06;;;;;;;0.73;0.40;;;;;;;;;;12647134;28;20036;-76
2022/07/10 21:52:08;;;;;;;0.45;0.40;;;;;;;;;;12647625;28;20040;-76
2022/07/10 21:58:10;;;;;;;0.47;0.30;;;;;;;;;;12627948;28;20016;-82
2022/07/10 22:04:12;;;;;;;0.40;0.30;;;;;;;;;;12655785;28;20028;-82
2022/07/10 22:10:13;;;;;;;0.73;0.50;;;;;;;;;;12647690;28;20396;-77
2022/07/10 22:16:15;;;;;;;1.05;0.55;;;;;;;;;;12611053;28;20500;-77
2022/07/10 22:22:17;;;;;;;3.25;0.60;;;;;;;;;;12646910;28;20080;-77
2022/07/10 22:28:18;;;;;;;0.70;0.68;;;;;;;;;;12646558;28;20035;-77
2022/07/10 22:34:20;;;;;;;;;;;;;;;;;;12628153;28;20044;-82
2022/07/10 22:40:22;;;;;;;0.82;0.70;;;;;;;;;;12628003;28;19923;-79
2022/07/10 22:46:24;;;;;;;;;;;;;;;;;;12646012;28;20036;-77
2022/07/10 22:52:25;;;;;;;0.93;0.60;;;;;;;;;;12644643;28;19923;-81
2022/07/10 22:58:27;;;;;;;0.95;0.70;;;;;;;;;;12610054;28;20225;-76
2022/07/10 23:04:29;;;;;;;;;;;;;;;;;;12626516;28;20035;-76
2022/07/10 23:10:30;;;;;;;1.80;0.60;;;;;;;;;;12630722;28;19915;-76
2022/07/10 23:16:32;;;;;;;;;;;;;;;;;;12645239;28;20380;-81
2022/07/10 23:22:33;;;;;;;0.60;0.47;;;;;;;;;;12625347;28;19908;-76
2022/07/10 23:28:35;;;;;;;0.47;0.45;;;;;;;;;;12627126;28;20032;-78
2022/07/10 23:34:39;;;;;;;1.05;0.68;;;;;;;;;;12626464;28;20043;-82
2022/07/10 23:40:41;;;;;;;0.82;0.60;;;;;;;;;;12626762;28;20056;-75
2022/07/10 23:46:43;;;;;;;1.08;0.70;;;;;;;;;;12630996;28;20032;-76
2022/07/10 23:52:45;;;;;;;;;;;;;;;;;;12653814;28;20044;-82
2022/07/10 23:58:46;;;;;;;0.50;0.50;;;;;;;;;;12635275;28;19920;-76
